Latest Weather Observations for Rundle Island

IDQ60801

Issued at 6:02 pm EST Wednesday 2 September 2015 (issued every 30 minutes, with the page automatically refreshed every 10 minutes)

About weather observations | Map of weather stations | Latest weather observations for QLD | Other Formats
Station Details ID: 039322 Name: RUNDLE ISLAND Lat: -23.53 Lon: 151.28 Height: 19.8 m
Data from the previous 72 hours. | See also: Recent months at Rundle Island
Date/Time
EST
Temp
°C
App
Temp
°C
Dew
Point
Rel
Hum
%
Delta-T
°C
Wind Press
QNH
hPa
Press
MSL
hPa
Rain
since 9 am
mm
Dir
 
Spd
km/h
Gust
km/h
Spd
kts
Gust
kts
02/06:00pm 21.5 - - - - N 30 33 16 18 1015.1 1015.0 -
02/05:30pm 21.6 - - - - N 28 33 15 18 1015.2 1015.1 -
02/05:00pm 21.7 - - - - NNE 33 37 18 20 1015.1 1015.0 -
02/04:30pm 21.9 - - - - NNE 30 33 16 18 1015.4 1015.3 -
02/04:00pm 22.0 - - - - N 26 28 14 15 1015.6 1015.5 -
02/03:30pm 22.0 - - - - N 26 30 14 16 1015.7 1015.6 -
02/03:00pm 22.2 - - - - NNE 24 28 13 15 1015.7 1015.6 -
02/02:30pm 22.7 - - - - NNE 24 28 13 15 1016.0 1015.9 -
02/02:00pm 22.0 - - - - NNE 22 26 12 14 1016.4 1016.3 -
02/01:30pm 21.8 - - - - N 20 24 11 13 1016.8 1016.7 -
02/01:00pm 22.6 - - - - NNE 13 17 7 9 1017.7 1017.6 -
02/12:30pm 24.0 - - - - NNE 7 9 4 5 1018.3 1018.2 -
02/12:00pm 24.0 - - - - NNE 6 7 3 4 1018.9 1018.8 -
02/11:30am 23.3 - - - - NNE 6 6 3 3 1019.4 1019.3 -
02/11:00am 22.7 - - - - ENE 4 4 2 2 1019.8 1019.7 -
02/10:30am 22.3 - - - - ENE 6 7 3 4 1020.0 1019.9 -
02/10:00am 21.9 - - - - E 6 7 3 4 1020.1 1020.0 -
02/09:30am 22.1 - - - - SE 4 6 2 3 1020.1 1020.0 -
02/09:00am 21.5 - - - - SE 2 4 1 2 1019.9 1019.8 -
02/08:30am 21.0 - - - - SE 4 4 2 2 1019.7 1019.6 -
02/08:00am 20.3 - - - - S 6 6 3 3 1019.5 1019.4 -
02/07:30am 19.2 - - - - SSW 6 7 3 4 1019.3 1019.2 -
02/07:00am 18.4 - - - - SSW 7 9 4 5 1019.0 1018.9 -
02/06:30am 18.0 - - - - SW 7 9 4 5 1018.9 1018.8 -
02/06:00am 17.8 - - - - SW 7 9 4 5 1018.8 1018.7 -
02/05:30am 17.9 - - - - WSW 7 9 4 5 1018.3 1018.2 -
02/05:00am 17.9 - - - - SW 7 9 4 5 1018.0 1017.9 -
02/04:30am 17.9 - - - - SW 7 7 4 4 1017.6 1017.5 -
02/04:00am 17.9 - - - - SW 6 7 3 4 1017.5 1017.4 -
02/03:30am 18.1 - - - - WSW 6 6 3 3 1017.3 1017.2 -
02/03:00am 18.2 - - - - SW 4 6 2 3 1017.4 1017.3 -
02/02:30am 18.6 - - - - WSW 6 7 3 4 1017.5 1017.4 -
02/02:00am 18.6 - - - - SW 7 9 4 5 1017.4 1017.3 -
02/01:30am 18.5 - - - - WSW 6 9 3 5 1017.2 1017.1 -
02/01:00am 20.4 - - - - NNW 17 20 9 11 1017.3 1017.2 -
02/12:30am 20.4 - - - - NNW 17 19 9 10 1017.2 1017.1 -
02/12:00am 20.4 - - - - NW 15 17 8 9 1017.2 1017.1 -
 
Date/Time
EST
Temp
°C
App
Temp
°C
Dew
Point
Rel
Hum
%
Delta-T
°C
Wind Press
QNH
hPa
Press
MSL
hPa
Rain
since 9 am
mm
Dir
 
Spd
km/h
Gust
km/h
Spd
kts
Gust
kts
01/11:30pm 20.4 - - - - NNW 15 17 8 9 1017.3 1017.2 -
01/11:00pm 20.4 - - - - NW 15 19 8 10 1017.3 1017.2 -
01/10:30pm 20.5 - - - - NW 17 20 9 11 1017.4 1017.3 -
01/10:00pm 20.5 - - - - NNW 20 24 11 13 1017.3 1017.2 -
01/09:30pm 20.5 - - - - NNW 19 20 10 11 1017.1 1017.0 -
01/09:00pm 20.6 - - - - NNW 19 20 10 11 1017.0 1016.9 -
01/08:30pm 20.6 - - - - N 19 20 10 11 1016.9 1016.8 -
01/08:00pm 20.6 - - - - N 17 20 9 11 1016.6 1016.5 -
01/07:30pm 20.5 - - - - N 19 20 10 11 1016.2 1016.1 -
01/07:00pm 20.5 - - - - N 20 24 11 13 1015.7 1015.6 -
01/06:30pm 20.4 - - - - N 24 28 13 15 1015.3 1015.2 -
01/06:00pm 20.4 - - - - NNE 20 24 11 13 1015.1 1015.0 -
01/05:30pm 20.6 - - - - NNE 22 26 12 14 1014.8 1014.7 -
01/05:00pm 20.9 - - - - NNE 19 20 10 11 1014.7 1014.6 -
01/04:30pm 21.1 - - - - NNE 17 19 9 10 1014.7 1014.6 -
01/04:00pm 21.3 - - - - NNE 17 19 9 10 1014.7 1014.6 -
01/03:30pm 21.6 - - - - NNE 15 17 8 9 1014.9 1014.8 -
01/03:00pm 21.5 - - - - NNE 15 19 8 10 1015.2 1015.1 -
01/02:30pm 20.9 - - - - NNE 15 17 8 9 1015.7 1015.6 -
01/02:00pm 20.4 - - - - NNE 15 19 8 10 1016.1 1016.0 -
01/01:30pm 20.9 - - - - NNE 15 19 8 10 1016.6 1016.5 -
01/01:00pm 21.2 - - - - NNE 13 15 7 8 1017.0 1016.9 -
01/12:30pm 22.0 - - - - NE 7 11 4 6 1017.5 1017.4 -
01/12:00pm 21.8 - - - - NE 6 7 3 4 1018.2 1018.1 -
01/11:30am 22.4 - - - - CALM 0 0 0 0 1018.8 1018.7 -
01/11:00am 21.4 - - - - CALM 0 0 0 0 1019.3 1019.2 -
01/10:30am 20.8 - - - - SSW 4 7 2 4 1019.6 1019.5 -
01/10:00am 19.8 - - - - SSW 7 9 4 5 1019.8 1019.7 -
01/09:30am 18.9 - - - - SW 7 9 4 5 1019.8 1019.7 -
01/09:00am 18.7 - - - - SW 9 11 5 6 1019.6 1019.5 -
01/08:30am 18.0 - - - - SW 9 11 5 6 1019.4 1019.3 -
01/08:00am 17.8 - - - - SW 9 11 5 6 1019.2 1019.1 -
01/07:30am 17.7 - - - - SW 9 13 5 7 1018.8 1018.7 -
01/07:00am 17.9 - - - - SSW 13 15 7 8 1018.3 1018.2 -
01/06:30am 17.7 - - - - SSW 13 15 7 8 1017.9 1017.8 -
01/06:00am 17.6 - - - - S 15 17 8 9 1017.3 1017.2 -
01/05:30am 17.6 - - - - S 17 19 9 10 1016.9 1016.8 -
01/05:00am 17.6 - - - - S 17 20 9 11 1016.6 1016.5 -
01/04:30am 17.8 - - - - S 17 20 9 11 1016.4 1016.3 -
01/04:00am 17.6 - - - - S 17 19 9 10 1016.2 1016.1 -
01/03:30am 17.8 - - - - SSW 15 17 8 9 1016.2 1016.1 -
01/03:00am 17.9 - - - - S 15 19 8 10 1016.3 1016.2 -
01/02:30am 18.0 - - - - S 22 24 12 13 1016.2 1016.1 -
01/02:00am 18.3 - - - - S 24 28 13 15 1016.3 1016.2 -
01/01:30am 18.5 - - - - SSW 22 26 12 14 1016.4 1016.3 -
01/01:00am 18.7 - - - - S 22 24 12 13 1016.7 1016.6 -
01/12:30am 18.9 - - - - S 24 28 13 15 1016.7 1016.6 -
01/12:00am 19.5 - - - - SSW 26 30 14 16 1016.8 1016.7 -
 
Date/Time
EST
Temp
°C
App
Temp
°C
Dew
Point
Rel
Hum
%
Delta-T
°C
Wind Press
QNH
hPa
Press
MSL
hPa
Rain
since 9 am
mm
Dir
 
Spd
km/h
Gust
km/h
Spd
kts
Gust
kts
31/11:30pm 19.9 - - - - SSW 26 32 14 17 1016.7 1016.6 -
31/11:00pm 19.9 - - - - SSW 17 24 9 13 1016.8 1016.7 -
31/10:30pm 19.7 - - - - SSW 13 15 7 8 1016.8 1016.7 -
31/10:00pm 20.1 - - - - SW 9 11 5 6 1016.9 1016.8 -
31/09:30pm 20.1 - - - - SW 9 11 5 6 1016.9 1016.8 -
31/09:00pm 20.2 - - - - SW 13 15 7 8 1016.6 1016.5 -
31/08:30pm 20.3 - - - - SW 19 20 10 11 1016.3 1016.2 -
31/08:00pm 20.5 - - - - WSW 15 17 8 9 1016.3 1016.2 -
31/07:30pm 20.4 - - - - WSW 13 15 7 8 1016.1 1016.0 -
31/07:00pm 20.9 - - - - WSW 15 19 8 10 1015.6 1015.5 -
31/06:30pm 21.5 - - - - WSW 15 19 8 10 1015.1 1015.0 -
31/06:00pm 21.9 - - - - SW 17 20 9 11 1014.5 1014.4 -
31/05:30pm 22.5 - - - - WSW 11 17 6 9 1014.2 1014.1 -
31/05:00pm 22.7 - - - - SW 9 19 5 10 1013.9 1013.8 -
31/04:30pm 23.1 - - - - WSW 17 26 9 14 1013.7 1013.6 -
31/04:00pm 22.9 - - - - WSW 26 32 14 17 1013.2 1013.1 -
31/03:30pm 23.0 - - - - WSW 24 30 13 16 1013.3 1013.2 -
31/03:00pm 22.7 - - - - SW 30 41 16 22 1013.5 1013.4 -
31/02:30pm 23.1 - - - - SW 26 33 14 18 1014.0 1013.9 -
31/02:00pm 23.0 - - - - W 22 33 12 18 1014.3 1014.2 -
31/01:30pm 22.1 - - - - NNE 11 17 6 9 1015.2 1015.1 -
31/01:00pm 20.8 - - - - NNE 15 17 8 9 1015.7 1015.6 -
31/12:30pm 19.0 - - - - N 9 11 5 6 1016.2 1016.1 -
31/12:00pm 19.4 - - - - N 7 13 4 7 1016.5 1016.4 -
31/11:30am 20.0 - - - - SE 7 9 4 5 1016.9 1016.8 -
31/11:00am 19.5 - - - - SSE 6 9 3 5 1017.7 1017.6 -
31/10:30am 20.0 - - - - S 9 13 5 7 1018.2 1018.1 -
31/10:00am 19.3 - - - - S 7 9 4 5 1018.7 1018.6 -
31/09:30am 18.9 - - - - SSW 7 11 4 6 1018.9 1018.8 -
31/09:00am 17.7 - - - - SSW 11 15 6 8 1018.8 1018.7 -
31/08:30am 17.1 - - - - SSW 17 20 9 11 1018.6 1018.5 -
31/08:00am 16.7 - - - - SSW 20 22 11 12 1017.9 1017.8 -
31/07:30am 16.5 - - - - SSW 20 24 11 13 1017.7 1017.6 -
31/07:00am 16.5 - - - - S 22 26 12 14 1017.3 1017.2 -
31/06:30am 16.5 - - - - SSW 24 28 13 15 1017.2 1017.1 -
31/06:00am 16.3 - - - - SSW 20 24 11 13 1016.7 1016.6 -
31/05:30am 16.6 - - - - SSW 19 20 10 11 1016.5 1016.4 -
31/05:00am 16.8 - - - - SSW 20 24 11 13 1016.2 1016.1 -
31/04:30am 16.9 - - - - SSW 20 24 11 13 1016.0 1015.9 -
31/04:00am 17.2 - - - - SSW 20 22 11 12 1016.0 1015.9 -
31/03:30am 17.5 - - - - SSW 20 22 11 12 1016.1 1016.0 -
31/03:00am 17.7 - - - - SSW 24 26 13 14 1016.2 1016.1 -
31/02:30am 18.0 - - - - S 24 26 13 14 1016.3 1016.2 -
31/02:00am 18.6 - - - - S 24 30 13 16 1016.4 1016.3 -
31/01:30am 19.4 - - - - S 33 37 18 20 1016.3 1016.2 -
31/01:00am 19.8 - - - - SSE 30 35 16 19 1016.5 1016.4 -
31/12:30am 19.5 - - - - S 28 32 15 17 1016.6 1016.5 -
31/12:00am 19.6 - - - - S 32 37 17 20 1016.7 1016.6 -
 
Date/Time
EST
Temp
°C
App
Temp
°C
Dew
Point
Rel
Hum
%
Delta-T
°C
Wind Press
QNH
hPa
Press
MSL
hPa
Rain
since 9 am
mm
Dir
 
Spd
km/h
Gust
km/h
Spd
kts
Gust
kts
30/11:30pm 19.8 - - - - SSW 33 41 18 22 1016.7 1016.6 -
30/11:00pm 20.4 - - - - SSW 33 41 18 22 1016.8 1016.7 -
30/10:30pm 20.3 - - - - SSW 33 37 18 20 1016.7 1016.6 -
30/10:00pm 20.5 - - - - SW 30 33 16 18 1016.7 1016.6 -
30/09:30pm 20.5 - - - - SW 26 30 14 16 1016.8 1016.7 -
30/09:00pm 20.2 - - - - SW 19 20 10 11 1016.7 1016.6 -
30/08:30pm 20.7 - - - - WSW 19 22 10 12 1016.4 1016.3 -
30/08:00pm 21.0 - - - - W 17 19 9 10 1016.0 1015.9 -
30/07:30pm 21.1 - - - - NW 15 15 8 8 1015.7 1015.6 -
30/07:00pm 21.1 - - - - NW 17 19 9 10 1015.4 1015.3 -
30/06:30pm 21.3 - - - - NW 17 20 9 11 1015.0 1014.9 -

Other Formats:

Comma delimited format used in spreadsheet applications
http://www.bom.gov.au/fwo/IDQ60801/IDQ60801.94378.axf

JavaScript Object Notation format (JSON) in row-major order
http://www.bom.gov.au/fwo/IDQ60801/IDQ60801.94378.json